Ty Lotus — DSNU7 — position and weather

sailwx.info

Track history (hours):
 
Tides and Currents Weather Stations Pressure Air Temp Water Temp Dewpoint Dewpoint Depression Visibility Wind Speed Wind Dir Waves Ship Positions

Ty Lotus

Last reported at 2017-Jan-16 12:29 UTC. Time now 2017-Jan-16 17:15 UTC.
Position N 35°09' E 139°43'.

Length 80 m; draft 3.7 m.

Type: Cargo ship. MMSI: 440324000.

Date/timePositionNaut miles runAvg speedWind from/ knotsBaromVisibWave heightAir tempDewpointWater temp
2017-Jan-16 12:29N 35°09' E 139°43'910.1
2017-Jan-16 11:33N 35°18' E 139°44'9 9.5
2017-Jan-16 10:33N 35°27' E 139°47'1110.9
2017-Jan-16 09:33N 35°34' E 139°58'6 0.6
2017-Jan-15 22:12N 35°40' E 139°58'3 4.1
2017-Jan-15 21:33N 35°38' E 139°59'8 8.2
2017-Jan-15 20:33N 35°31' E 139°54'9 9.3
2017-Jan-15 19:33N 35°25' E 139°46'0 0.2
2017-Jan-15 18:33N 35°24' E 139°46'0 0.0
2017-Jan-15 17:32N 35°24' E 139°46'0 0.0
2017-Jan-15 16:32N 35°24' E 139°46'0 0.0
2017-Jan-15 15:32N 35°24' E 139°46'0 0.0
2017-Jan-15 14:32N 35°24' E 139°46'0 0.1
2017-Jan-15 13:32N 35°24' E 139°46'0 0.0
2017-Jan-15 12:33N 35°24' E 139°46'0 0.0
2017-Jan-15 11:31N 35°24' E 139°46'0 0.0
2017-Jan-15 10:33N 35°24' E 139°46'0 0.0
2017-Jan-15 09:33N 35°24' E 139°46'0 0.1
2017-Jan-15 08:30N 35°24' E 139°46'0 0.1
2017-Jan-15 07:33N 35°24' E 139°46'0 0.0
2017-Jan-15 06:24N 35°24' E 139°46'0 0.1
2017-Jan-15 05:33N 35°24' E 139°46'0 0.1
2017-Jan-15 04:33N 35°24' E 139°46'0 0.1
2017-Jan-15 03:33N 35°24' E 139°46'0 0.1
2017-Jan-15 02:33N 35°24' E 139°46'0 0.0
2017-Jan-15 01:33N 35°24' E 139°46'0 0.0
2017-Jan-15 00:33N 35°24' E 139°46'0 0.0
2017-Jan-14 23:33N 35°24' E 139°46'0 0.1
2017-Jan-14 22:27N 35°24' E 139°46'0 0.0
2017-Jan-14 21:33N 35°24' E 139°46'0 0.0
2017-Jan-14 20:33N 35°24' E 139°46'0 0.0
2017-Jan-14 19:33N 35°24' E 139°46'0 0.0
2017-Jan-14 18:33N 35°24' E 139°46'0 0.1
2017-Jan-14 17:33N 35°24' E 139°46'0 0.0
2017-Jan-14 16:33N 35°24' E 139°46'0 0.0
2017-Jan-14 15:33N 35°24' E 139°46'0 0.0
2017-Jan-14 14:34N 35°24' E 139°46'0 0.1
2017-Jan-14 13:32N 35°24' E 139°46'0 0.0
2017-Jan-14 12:32N 35°24' E 139°46'0 0.0
2017-Jan-14 11:32N 35°24' E 139°46'0 0.0
2017-Jan-14 10:32N 35°24' E 139°46'0 0.0
2017-Jan-14 09:29N 35°24' E 139°46'0 0.0
2017-Jan-14 08:32N 35°24' E 139°46'0 0.0
2017-Jan-14 07:26N 35°24' E 139°46'0 0.0
2017-Jan-14 06:32N 35°24' E 139°46'14 0.5
2017-Jan-13 02:33N 35°35' E 139°58'0 0.0
2017-Jan-13 01:30N 35°35' E 139°58'0 0.1
2017-Jan-13 00:33N 35°35' E 139°58'0 0.0
2017-Jan-12 23:33N 35°35' E 139°58'0 0.0
2017-Jan-12 22:18N 35°35' E 139°58'0 0.0
2017-Jan-12 19:18N 35°35' E 139°58'0 0.0
2017-Jan-12 15:32N 35°35' E 139°58'0 0.0
2017-Jan-12 14:26N 35°35' E 139°58'0 0.1
2017-Jan-12 13:32N 35°35' E 139°58'0 0.0
2017-Jan-12 12:32N 35°35' E 139°58'0 0.1
2017-Jan-12 11:26N 35°35' E 139°58'0 0.0
2017-Jan-11 18:10N 35°35' E 139°58'0 0.0
2017-Jan-11 17:28N 35°35' E 139°58'0 0.0
2017-Jan-11 16:31N 35°35' E 139°58'0 0.0
2017-Jan-11 15:31N 35°35' E 139°58'0 0.0
2017-Jan-11 14:31N 35°35' E 139°58'6 6.3
2017-Jan-11 13:33N 35°30' E 139°53'9 9.2
2017-Jan-11 12:33N 35°23' E 139°46'8 8.1
2017-Jan-11 11:34N 35°15' E 139°47'9 9.0
2017-Jan-11 10:33N 35°07' E 139°43'243 8.7
2017-Jan-10 06:32N 34°02' E 134°59'1010.6
2017-Jan-10 05:33N 34°12' E 134°58'2010.0
2017-Jan-10 03:33N 34°29' E 135°11'10 9.6
2017-Jan-10 02:33N 34°36' E 135°19'5 2.4
2017-Jan-10 00:31N 34°38' E 135°24'0 0.0
2017-Jan-09 23:19N 34°38' E 135°24'0 0.0
2017-Jan-09 22:19N 34°38' E 135°24'2 1.7
2017-Jan-09 21:26N 34°37' E 135°23'0 0.0
2017-Jan-09 20:32N 34°37' E 135°23'0 0.0
2017-Jan-09 19:32N 34°37' E 135°23'0 0.0
2017-Jan-09 18:32N 34°37' E 135°23'0 0.0
2017-Jan-09 17:32N 34°37' E 135°23'0 0.0
2017-Jan-09 16:32N 34°37' E 135°23'0 0.0
2017-Jan-09 15:32N 34°37' E 135°23'0 0.0
2017-Jan-09 14:32N 34°37' E 135°23'0 0.0
2017-Jan-09 13:32N 34°37' E 135°23'0 0.0
2017-Jan-09 12:32N 34°37' E 135°23'0 0.0
2017-Jan-09 11:30N 34°37' E 135°23'0 0.0
2017-Jan-09 10:24N 34°37' E 135°23'0 0.0
2017-Jan-09 09:30N 34°37' E 135°23'0 0.0
2017-Jan-09 08:30N 34°37' E 135°23'0 0.0
2017-Jan-09 07:24N 34°37' E 135°23'0 0.0
2017-Jan-09 06:30N 34°37' E 135°23'0 0.0
2017-Jan-09 05:30N 34°37' E 135°23'0 0.0
2017-Jan-09 04:30N 34°37' E 135°23'0 0.0
2017-Jan-09 03:30N 34°37' E 135°23'0 0.0
2017-Jan-09 02:18N 34°37' E 135°23'0 0.0
2017-Jan-09 01:18N 34°37' E 135°23'0 0.0
2017-Jan-09 00:24N 34°37' E 135°23'0 0.1
2017-Jan-08 23:30N 34°37' E 135°23'0 0.0
2017-Jan-08 22:24N 34°37' E 135°23'0 0.0
2017-Jan-08 21:30N 34°37' E 135°23'0 0.0
2017-Jan-08 20:12N 34°37' E 135°23'0 0.0
2017-Jan-08 19:24N 34°37' E 135°23'0 0.1
2017-Jan-08 18:30N 34°37' E 135°23'0 0.0
2017-Jan-08 17:30N 34°37' E 135°23'0 0.1
2017-Jan-08 16:24N 34°37' E 135°23'0 0.0
2017-Jan-08 15:30N 34°37' E 135°23'0 0.0
2017-Jan-08 14:30N 34°37' E 135°23'0 0.1
2017-Jan-08 13:28N 34°37' E 135°23'0 0.0
2017-Jan-08 12:28N 34°37' E 135°23'0 0.0
2017-Jan-08 11:28N 34°37' E 135°23'0 0.0
2017-Jan-08 10:22N 34°37' E 135°23'0 0.0
2017-Jan-08 09:28N 34°37' E 135°23'0 0.0
2017-Jan-08 07:28N 34°37' E 135°23'0 0.0
2017-Jan-08 06:28N 34°37' E 135°23'0 0.0
2017-Jan-08 05:28N 34°37' E 135°23'0 0.0
2017-Jan-08 04:28N 34°37' E 135°23'0 0.0
2017-Jan-08 03:28N 34°37' E 135°23'0 0.0
2017-Jan-08 02:22N 34°37' E 135°23'0 0.0
2017-Jan-08 01:22N 34°37' E 135°23'0 0.0
2017-Jan-08 00:31N 34°37' E 135°23'6 6.5
2017-Jan-07 23:33N 34°35' E 135°15'9 8.9
2017-Jan-07 22:33N 34°35' E 135°05'  
Track history (hours):
 
Tides and Currents Weather Stations Pressure Air Temp Water Temp Dewpoint Dewpoint Depression Visibility Wind Speed Wind Dir Waves Ship Positions

Ty Lotus

Last reported at 2017-Jan-16 12:29 UTC. Time now 2017-Jan-16 17:15 UTC.
Position N 35°09' E 139°43'.

Length 80 m; draft 3.7 m.

Type: Cargo ship. MMSI: 440324000.

Date/timePositionNaut miles runAvg speedWind from/ knotsBaromVisibWave heightAir tempDewpointWater temp
2017-Jan-16 12:29N 35°09' E 139°43'910.1
2017-Jan-16 11:33N 35°18' E 139°44'9 9.5
2017-Jan-16 10:33N 35°27' E 139°47'1110.9
2017-Jan-16 09:33N 35°34' E 139°58'6 0.6
2017-Jan-15 22:12N 35°40' E 139°58'3 4.1
2017-Jan-15 21:33N 35°38' E 139°59'8 8.2
2017-Jan-15 20:33N 35°31' E 139°54'9 9.3
2017-Jan-15 19:33N 35°25' E 139°46'0 0.2
2017-Jan-15 18:33N 35°24' E 139°46'0 0.0
2017-Jan-15 17:32N 35°24' E 139°46'0 0.0
2017-Jan-15 16:32N 35°24' E 139°46'0 0.0
2017-Jan-15 15:32N 35°24' E 139°46'0 0.0
2017-Jan-15 14:32N 35°24' E 139°46'0 0.1
2017-Jan-15 13:32N 35°24' E 139°46'0 0.0
2017-Jan-15 12:33N 35°24' E 139°46'0 0.0
2017-Jan-15 11:31N 35°24' E 139°46'0 0.0
2017-Jan-15 10:33N 35°24' E 139°46'0 0.0
2017-Jan-15 09:33N 35°24' E 139°46'0 0.1
2017-Jan-15 08:30N 35°24' E 139°46'0 0.1
2017-Jan-15 07:33N 35°24' E 139°46'0 0.0
2017-Jan-15 06:24N 35°24' E 139°46'0 0.1
2017-Jan-15 05:33N 35°24' E 139°46'0 0.1
2017-Jan-15 04:33N 35°24' E 139°46'0 0.1
2017-Jan-15 03:33N 35°24' E 139°46'0 0.1
2017-Jan-15 02:33N 35°24' E 139°46'0 0.0
2017-Jan-15 01:33N 35°24' E 139°46'0 0.0
2017-Jan-15 00:33N 35°24' E 139°46'0 0.0
2017-Jan-14 23:33N 35°24' E 139°46'0 0.1
2017-Jan-14 22:27N 35°24' E 139°46'0 0.0
2017-Jan-14 21:33N 35°24' E 139°46'0 0.0
2017-Jan-14 20:33N 35°24' E 139°46'0 0.0
2017-Jan-14 19:33N 35°24' E 139°46'0 0.0
2017-Jan-14 18:33N 35°24' E 139°46'0 0.1
2017-Jan-14 17:33N 35°24' E 139°46'0 0.0
2017-Jan-14 16:33N 35°24' E 139°46'0 0.0
2017-Jan-14 15:33N 35°24' E 139°46'0 0.0
2017-Jan-14 14:34N 35°24' E 139°46'0 0.1
2017-Jan-14 13:32N 35°24' E 139°46'0 0.0
2017-Jan-14 12:32N 35°24' E 139°46'0 0.0
2017-Jan-14 11:32N 35°24' E 139°46'0 0.0
2017-Jan-14 10:32N 35°24' E 139°46'0 0.0
2017-Jan-14 09:29N 35°24' E 139°46'0 0.0
2017-Jan-14 08:32N 35°24' E 139°46'0 0.0
2017-Jan-14 07:26N 35°24' E 139°46'0 0.0
2017-Jan-14 06:32N 35°24' E 139°46'14 0.5
2017-Jan-13 02:33N 35°35' E 139°58'0 0.0
2017-Jan-13 01:30N 35°35' E 139°58'0 0.1
2017-Jan-13 00:33N 35°35' E 139°58'0 0.0
2017-Jan-12 23:33N 35°35' E 139°58'0 0.0
2017-Jan-12 22:18N 35°35' E 139°58'0 0.0
2017-Jan-12 19:18N 35°35' E 139°58'0 0.0
2017-Jan-12 15:32N 35°35' E 139°58'0 0.0
2017-Jan-12 14:26N 35°35' E 139°58'0 0.1
2017-Jan-12 13:32N 35°35' E 139°58'0 0.0
2017-Jan-12 12:32N 35°35' E 139°58'0 0.1
2017-Jan-12 11:26N 35°35' E 139°58'0 0.0
2017-Jan-11 18:10N 35°35' E 139°58'0 0.0
2017-Jan-11 17:28N 35°35' E 139°58'0 0.0
2017-Jan-11 16:31N 35°35' E 139°58'0 0.0
2017-Jan-11 15:31N 35°35' E 139°58'0 0.0
2017-Jan-11 14:31N 35°35' E 139°58'6 6.3
2017-Jan-11 13:33N 35°30' E 139°53'9 9.2
2017-Jan-11 12:33N 35°23' E 139°46'8 8.1
2017-Jan-11 11:34N 35°15' E 139°47'9 9.0
2017-Jan-11 10:33N 35°07' E 139°43'243 8.7
2017-Jan-10 06:32N 34°02' E 134°59'1010.6
2017-Jan-10 05:33N 34°12' E 134°58'2010.0
2017-Jan-10 03:33N 34°29' E 135°11'10 9.6
2017-Jan-10 02:33N 34°36' E 135°19'5 2.4
2017-Jan-10 00:31N 34°38' E 135°24'0 0.0
2017-Jan-09 23:19N 34°38' E 135°24'0 0.0
2017-Jan-09 22:19N 34°38' E 135°24'2 1.7
2017-Jan-09 21:26N 34°37' E 135°23'0 0.0
2017-Jan-09 20:32N 34°37' E 135°23'0 0.0
2017-Jan-09 19:32N 34°37' E 135°23'0 0.0
2017-Jan-09 18:32N 34°37' E 135°23'0 0.0
2017-Jan-09 17:32N 34°37' E 135°23'0 0.0
2017-Jan-09 16:32N 34°37' E 135°23'0 0.0
2017-Jan-09 15:32N 34°37' E 135°23'0 0.0
2017-Jan-09 14:32N 34°37' E 135°23'0 0.0
2017-Jan-09 13:32N 34°37' E 135°23'0 0.0
2017-Jan-09 12:32N 34°37' E 135°23'0 0.0
2017-Jan-09 11:30N 34°37' E 135°23'0 0.0
2017-Jan-09 10:24N 34°37' E 135°23'0 0.0
2017-Jan-09 09:30N 34°37' E 135°23'0 0.0
2017-Jan-09 08:30N 34°37' E 135°23'0 0.0
2017-Jan-09 07:24N 34°37' E 135°23'0 0.0
2017-Jan-09 06:30N 34°37' E 135°23'0 0.0
2017-Jan-09 05:30N 34°37' E 135°23'0 0.0
2017-Jan-09 04:30N 34°37' E 135°23'0 0.0
2017-Jan-09 03:30N 34°37' E 135°23'0 0.0
2017-Jan-09 02:18N 34°37' E 135°23'0 0.0
2017-Jan-09 01:18N 34°37' E 135°23'0 0.0
2017-Jan-09 00:24N 34°37' E 135°23'0 0.1
2017-Jan-08 23:30N 34°37' E 135°23'0 0.0
2017-Jan-08 22:24N 34°37' E 135°23'0 0.0
2017-Jan-08 21:30N 34°37' E 135°23'0 0.0
2017-Jan-08 20:12N 34°37' E 135°23'0 0.0
2017-Jan-08 19:24N 34°37' E 135°23'0 0.1
2017-Jan-08 18:30N 34°37' E 135°23'0 0.0
2017-Jan-08 17:30N 34°37' E 135°23'0 0.1
2017-Jan-08 16:24N 34°37' E 135°23'0 0.0
2017-Jan-08 15:30N 34°37' E 135°23'0 0.0
2017-Jan-08 14:30N 34°37' E 135°23'0 0.1
2017-Jan-08 13:28N 34°37' E 135°23'0 0.0
2017-Jan-08 12:28N 34°37' E 135°23'0 0.0
2017-Jan-08 11:28N 34°37' E 135°23'0 0.0
2017-Jan-08 10:22N 34°37' E 135°23'0 0.0
2017-Jan-08 09:28N 34°37' E 135°23'0 0.0
2017-Jan-08 07:28N 34°37' E 135°23'0 0.0
2017-Jan-08 06:28N 34°37' E 135°23'0 0.0
2017-Jan-08 05:28N 34°37' E 135°23'0 0.0
2017-Jan-08 04:28N 34°37' E 135°23'0 0.0
2017-Jan-08 03:28N 34°37' E 135°23'0 0.0
2017-Jan-08 02:22N 34°37' E 135°23'0 0.0
2017-Jan-08 01:22N 34°37' E 135°23'0 0.0
2017-Jan-08 00:31N 34°37' E 135°23'6 6.5
2017-Jan-07 23:33N 34°35' E 135°15'9 8.9
2017-Jan-07 22:33N 34°35' E 135°05'  

Dump ship's entire track history